Timeline UpdatesTrip UpdatesNews PostsPvt Posts♥♥Travel TipsAdmin PostsConv PostsFollowed PostsChat RequestsBlog PostsPNR Posts

Disclaimer
Search
 
 
Thu Nov 27, 2014 00:08:06 ISTHomeTrainsΣChainsAtlasPNRForumGalleryNewsFAQTripsMembersLoginFeedback
No Recent News for this Train
Other Trains in the News **new
Latest...
.
Mon Sep 01, 2014 (09:35PM)
⇐ Return Journey: Train# 13019

13020/Bagh Express

Time-Table HAS CHANGED.
Sep 01 2014 (11:39PM)
Change Departure Station:
Change Arrival Station:
Post a Train Travel TipPost a Train Travel Tip **new
Post a Comment/Question/Picture/VideoPost a Comment/Question/Picture/Video
Pantry/Catering
✕ NO Pantry Car
✓ Catering Avbl
Loco/Rake Reversals
RMU/Rampur Junction (3); LJN/Lucknow Junction NER (6);
RSA - Rake Sharing
Rake/Coach Composition
LOCO-SLR-GS-GS-A1-B1-S7-S6-S5-S4-S3-S2-S1-GS-GS-GS-SLR
Loco
IZN WDP-4D (KGM-BJU); HWH WAP-4 (BJU-HWH)
News    PNR    Forum    Time-Table    Availability    Fare Chart    Map    Arr/Dep History    Trips    Gallery    ΣChains    X/O    Timeline    
Travel Time: 35h 18m    57 halts    Distance: 1332 km    Avg Speed: 37 km/hr
Type: Mail/Express
Zone: ER/Eastern
Departs @ 21:55 (Avg on time)
Platform# 3
SMTWTFS
Kathgodam/KGM 
Arrives @ 09:13 +2 nights (Avg 16m late)
Platform# ???
SMTWTFS
Andal Junction/UDL 

57 halts. 222 intermediate Stations between Kathgodam and Andal Junction

Show ALL intermediate Stations  Show Old Time-Table

#TrkCodeStation NameX/OArrivesAvgDepartsAvgHaltPFDay#KmSpeedElevZoneAddress
1|--|KGMKathgodam (3)»  -21:55+0310.023520mNERKathgodam, Uttarakhand
2|--|HDWHaldwani (3)X  22:11 22:10+622:13 22:15+72 5m115.933443mNERHaldwani, Uttarakhand
3|--|LKULal Kuan Junction (4)  22:45+522:50 22:47+95 2m--122.335262mNERLalkuan, Uttarakhand
4|--|HLDDHaldi Road  22:59 23:00+723:01 23:02+72m--129.960236mNERNH 87, Uttarakhand
5|--|RUPCRudrapur City (2)  23:15 23:16+823:17 23:18+112m--143.964208mNERUdham Singh Nagar, Uttarakhand
6|--|BLQRBilaspur Road (1)  23:34 23:35+1023:36 23:37+102m1161.934196mNERRampur, Uttar Pradesh
7|--|RMURampur Junction (3)X00:20 00:25-100:45 00:50+1025m--288.871190mNRRampur, Uttar Pradesh
8/==/BEBareilly Junction (4)X  01:38 01:43+1401:46 01:50+168 7m12151.868174mNRBareilly, Uttar Pradesh
9/==/SPNShahjahanpur Junction (5)  02:52+1302:57+145m--2222.340156mNRShahjahanpur, Uttar Pradesh
10/=-|ROZARoza Junction (4)X  03:05 03:08+1403:07 03:15+182 7m--2229.686156mNRShahjahanpur, Uttar Pradesh
11/==/HRIHardoi (5)X03:55 03:54+3103:57 03:56+312m32285.251146mNRHardoi, Uttar Pradesh
12/==/LJNLucknow Junction NER (6)X05:55+1706:20+1825m12386.314126mNERLucknow, Uttar Pradesh
13/--/BNZBadshahnagar (2)  07:08+607:10+82m12397.437116mNERLucknow, Uttar Pradesh
14/--/BBKBarabanki Junction (4)X  07:50+707:54+84m--2422.072 NRPin-225001, Uttar Pradesh
15/==/JLDJarwal Road (2)  08:34 08:30+1808:36 08:32+192m--2465.148112mNERBehraich, Uttar Pradesh
16/==%GDGonda Junction (3)X  09:15 09:30+2109:25 09:40+2010m22511.382110mNERGonda 271001, Uttar Pradesh
17%==%BSTBasti (4)  10:35 10:45+2210:40 10:50+225m--2599.76390mNERBasti 272001, Uttar Pradesh
18%==%KLDKhalilabad (3)  11:02 11:18+2011:04 11:20+212m--2629.23786mNERKhalilabad- 272175, Uttar Pradesh
19%==%GKPGorakhpur Junction (10)X  12:20 12:15+1112:40+920 25m--2663.26484mNERGorakhpur 273001, Uttar Pradesh
20%==%CCChauri Chaura (2)X  13:03+3413:05+382m--2687.55084mNERGorakhpur- PinCode:- 273201, Uttar Pradesh
21%==%DEOSDeoria Sadar (3)  13:28 13:35+4213:30 13:40+432 5m--2712.37379mNERDeoria- 274001, Uttar Pradesh
22%==%BTTBhatni Junction (5)  13:55 13:57+4914:00 14:02+505m--2733.15573mNERDeoria, Uttar Pradesh
23%==%BHTRBhatpar Rani (2)X  14:13 14:16+5214:15 14:18+522m--2745.94873mNERDeoria, Uttar Pradesh
24%==%BTKBankata (2)  14:23 14:28+5114:25 14:30+512m--2754.04373mNERDeoria, Uttar Pradesh
25%==%MWMairwa (2)  14:36 14:39+5114:38 14:41+522m22760.54473mNERMairwa, Bihar
26%==%ZRDEJiradei (2)X  14:59 14:56+4915:01 14:58+492m--2771.53669mNERSiwan, Bihar
27%==%SVSiwan Junction (4)X  15:15+4515:25+4110m--2781.87170mNERSiwan, Bihar
28%==%DDADuraundha Junction (3)  15:40+4515:42+452m--2799.64164mNERDistt: Siwan, Bihar
29%==%CWChainwa (2)  15:51 15:54+4115:53 15:55+422 1m--2807.71463mNERSiwan, Bihar
30%==%EKMAEkma (3)O  16:11 16:26+2116:13 16:28+252m--2815.15264mNERSaran, Bihar
31%==%DDPDaudpur (2)XO  16:33 16:38+1916:35 16:40+232m--2823.72659mNERChhapra, Bihar
32%==%CPRChhapra Junction (6)  17:25+917:35+1010m--2843.06058mNERDistt: Saran, Bihar
33/==/DGADighwara (2)X  18:05 18:06+2818:07+292 1m--2873.96560mECR06158-281240, Bihar
34/==/NYONayagaon (2)X  18:17 18:18+3318:19+342 1m--2885.73653mECRNayagaon Sarai, Bihar
35/==/SEESonpur Junction (4)X  18:39 18:38+3418:47 18:43+368 5m--2897.03356mECRSaran, Bihar
36/=-/HJPHajipur Junction (3)  19:00 18:53+3919:02 18:58+472 5m--2902.55655mECR06224-272230, Bihar
37/--/BNRBhagwanpur (2)  19:17 19:19+5119:19 19:20+562 1m12922.25560mECRBhagwanpur, Bihar
38/--/GRLGoraul (2)X  19:27 19:29+5819:29 19:30+1:022 1m12930.53357mECRVAISHALI, Bihar
39%==%MFPMuzaffarpur Junction (6)X  20:20 20:17+1:0420:30 20:22+1:0610 5m22956.46957mECRMuzaffarpur, Bihar
40/==/DOLDholi (2)X  20:51 20:44+1:1420:53 20:45+1:152 1m--2981.562 ECRDistt. Muzaffarpur, Bihar
41/==/KRBPKhudiram B Pusa (2)  21:05 20:58+1:1621:07 20:59+1:172 1m--2994.95552mECRDistt. Samastipur, Bihar
42/==/KPGMKarpurigram (3)X  21:14 21:07+1:1921:16 21:08+1:202 1m--21002.21451mECRState Highway 49, Bihar
43/==/SPJSamastipur Junction (9)X  21:40 21:35+1:0721:50 21:40+1:1010 5m--21008.56655mECRSamastipur, Bihar
44/==/DSSDalsingh Sarai (2)X  22:10 22:01+1:1422:12 22:02+1:152 1m221031.760 ECR06278-221238, Bihar
45/==/BCABachwara Junction (3)O  22:23 22:13+1:1922:25 22:14+1:202 1m--21042.71549mECRBegusarai, Bihar
46/==/BJUBarauni Junction (9)23:20+5600:10+3950m--21059.12849mECRBegusarai, Bihar
47/==/KIULKiul Junction (5)  01:35+1:0901:40+1:095m--31098.33853mECRDist. Lakhisarai, Bihar
48/==/JAJJhajha (4)X  03:05+3603:15+3810m--31151.670143mECRJhajha, Bihar
49/==/STLSimultala (2)X  03:31+4703:33+512m--31170.366247mERSimultala, Bihar
50/==/JSMEJasidih Junction (5)X  03:56+1:1204:01+1:225m--31195.762271mERJasidih, Jharkhand
51/==/MDPMadhupur Junction (4)XO  05:20 04:29+1:2405:24+414 55m--31224.881254mER06432-224478, Jharkhand
52/==/VDSVidyasagar (2)X  05:47 05:42+4505:49 05:44+462m231248.963250mERJamtara, Jharkhand
53/==/JMTJamtara (2)  06:13 06:01+4606:15 06:03+472m231266.848201mERJamtara, Jharkhand
54/==/CRJChittaranjan (3)  06:34 06:21+4406:36 06:25+462 4m231281.139182mERMihijam, Jharkhand
55/==/RNPRRupnarayanpur (3)  06:43 06:32+4706:45 06:34+462m131285.713191mERChittaranjan, West Bengal
56/==/STNSitarampur Junction (5)XO  07:48 07:30+2007:50+222 20m331297.413139mERG T Rd Before Asansol, West Bengal
57/==/ASNAsansol Junction (7)  08:30+708:45+815m--31306.272113mERDist - Bardhaman, West Bengal
58/==/RNGRaniGanj (4)  09:00+1709:02+192m--31324.34092mERRaniganj, West Bengal
59/==/UDLAndal Junction (6)•X  09:13+1609:15+162m--31331.67386mERAndal, West Bengal
60/==/DGRDurgapur (5)X  09:29+1709:31+172m--31348.78571mERDurgapur, West Bengal
61/==/PANPanagarh (4)X  09:42+2109:44+202m--31364.36170mERKaksa, West Bengal
62/==/BWNBarddhaman Junction (8)X  10:31+1810:36+185m--31412.25934mERDist - Barddhaman, West Bengal
63/==/BDCBandel Junction (7)  11:44+2011:49+245m--31479.54614mERdist - HOOGHLY, West Bengal
64/==/HWHKolkata Howrah Junction (23)  12:40+11-1331518.9-10mERHowrah 711101, West Bengal
Scroll to Top
Scroll to Bottom